x

Buoy B01 - Western Maine Shelf (44030) Wave Buoy

11:04am - Fri 17th Aug 2018 All times are EDT. -4 hours from GMT.

  • Sig Wave height 1.3ft
  • Peak Period 8s
  • Wind
    7mph, 7mph gusts
  • Sea Temp 67°f
  • Air Temp 65°f
  • Sea Pressure 1018.4mb
  • Buoy B01 - Western Maine Shelf
  • Buoy B01 - Western Maine Shelf

More Historic Weather Station data

Upgrade to MSW Pro to gain access to the past 30 days of data for over 8000 Wavebouys and Weather Stations around the globe.

Join

Comparision Forecast

View Surf forecast
   
Fri 08/17 11:04am 1.3ft 8s 7 7 mph 1018.4mb 67f 65f
10:04am 1.3ft 8s 9 11 mph 1018.1mb 66f 65f
9:04am 1.3ft 8s 9 11 mph 1018.1mb 67f 65f
8:04am 1.3ft 8s 7 9 mph 1018.2mb 67f 65f
7:04am 1.3ft 6s 9 9 mph 1018mb 67f 65f
6:04am 1.3ft 8s 9 9 mph 1017.9mb 68f 65f
4:04am 1.6ft 8s 7 9 mph 1017.4mb 68f 67f
3:04am 1.6ft 8s 7 7 mph 1017.3mb 68f 67f
2:04am 1.6ft 6s 7 9 mph 1017.1mb 68f 68f
1:04am 1.6ft 6s 7 9 mph 1017mb 68f 67f
12:04am 1.6ft 6s 7 9 mph 1017mb 67f 68f
Thu 08/16 11:04pm 1.3ft 8s 7 9 mph 1016.6mb 68f 68f
9:04pm 1.3ft 8s 4 7 mph 1015.7mb 69f 70f
8:04pm 1.3ft 8s 9 9 mph 1014.9mb 69f 73f
7:04pm 1.6ft 8s 9 11 mph 1014.3mb 69f 74f
6:04pm 1.6ft 8s 9 11 mph 1013.8mb 69f 75f
5:04pm 1.6ft 8s 11 11 mph 1013.3mb 69f 76f
4:04pm 2ft 8s 11 13 mph 1012.9mb 70f 75f
3:04pm 1.6ft 8s 4 7 mph 1012.8mb 72f 77f
2:04pm 1.6ft 8s 4 7 mph 1012.8mb 71f 73f
1:04pm 2ft 6s 7 7 mph 1013mb 70f 72f
12:04pm 1.6ft 6s 9 9 mph 1012.9mb 70f 72f
11:04am 1.3ft 6s 7 7 mph 1013.3mb 69f 71f
10:04am 1.6ft 8s 4 7 mph 1013.3mb 68f 70f
9:04am 1.3ft 6s 2 4 mph 1013.1mb 68f 70f
8:04am 1.6ft 8s 4 4 mph 1013mb 68f 71f
7:04am 1.3ft 6s 4 7 mph 1012.4mb 68f 70f
6:04am 1.6ft 8s 7 7 mph 1011.9mb 68f 70f
5:04am 1.6ft 6s 4 7 mph 1010.9mb 68f 69f
4:04am 1.6ft 8s 9 11 mph 1010.2mb 68f 71f
3:04am 2ft 6s 9 11 mph 1009.7mb 68f 71f
2:04am 2ft 8s 7 7 mph 1009.8mb 67f 69f
1:04am 1.6ft 6s 9 9 mph 1009.9mb 67f 70f
12:04am 1.6ft 8s 7 9 mph 1010.1mb 67f 69f
Wed 08/15 11:04pm 1.6ft 6s 7 9 mph 1009.9mb 67f 69f
10:04pm 1.6ft 8s 4 7 mph 1010.1mb 68f 69f
9:04pm 1.6ft 8s 7 9 mph 1009.9mb 68f 69f
8:04pm 2ft 8s 7 7 mph 1008.9mb 68f 69f
7:04pm 1.6ft 6s 7 9 mph 1008.3mb 67f 69f
6:04pm 2.5ft 6s 7 9 mph 1008.1mb 66f 70f
5:04pm 2.5ft 5s 7 9 mph 1007.9mb 67f 70f
4:04pm 2.5ft 5s 7 7 mph 1007.9mb 66f 69f
3:04pm 2.5ft 6s 9 11 mph 1008.1mb 67f 69f
2:04pm 2.5ft 6s 7 9 mph 1008.2mb 68f 70f
1:04pm 2.5ft 6s 7 7 mph 1008.6mb 66f 70f
12:04pm 2ft 6s 4 7 mph 1008.9mb 66f 69f
11:04am 1.6ft 6s 2 4 mph 1009.2mb 66f 68f
10:04am 1.6ft 8s 4 4 mph 1008.9mb 65f 68f
9:04am 2ft 8s 4 4 mph 1008.7mb 67f 68f
8:04am 1.6ft 8s 4 4 mph 1008.6mb 67f 67f
7:04am 2ft 8s 4 4 mph 1008.3mb 68f 68f
6:04am 1.6ft 8s 2 4 mph 1007.9mb 68f 68f
5:04am 2ft 8s 4 4 mph 1007.6mb 69f 68f
4:04am 2ft 6s 4 4 mph 1007.6mb 69f 68f
3:04am 2.5ft 5s 2 2 mph 1007.8mb 69f 67f
2:04am 2.5ft 8s 4 4 mph 1008.1mb 69f 67f
1:04am 2ft 6s 4 7 mph 1008.4mb 69f 68f
12:04am 2ft 8s 4 7 mph 1008.6mb 69f 68f
Tue 08/14 11:04pm 2ft 6s 7 9 mph 1008.6mb 69f 69f
10:04pm 1.6ft 6s 11 13 mph 1008.6mb 70f 69f
9:04pm 1.6ft 6s 16 16 mph 1008.7mb 69f 70f
8:04pm 1.6ft 8s 13 16 mph 1008.9mb 69f 69f
7:04pm 1.6ft 8s 7 9 mph 1009mb 69f 68f
6:04pm 1.6ft 6s 9 9 mph 1009.6mb 70f 67f
3:04pm 2ft 6s 7 9 mph 1010.1mb 70f 69f
2:04pm 2ft 6s 4 7 mph 1010.5mb 70f 69f
1:04pm 2ft 6s 7 7 mph 1011mb 70f 68f
12:04pm 2ft 6s 4 4 mph 1011.4mb 70f 67f
11:04am 2ft 4s 4 4 mph 1011.6mb 69f 67f
10:04am 1.6ft 4s 4 7 mph 1011.8mb 69f 67f
9:04am 1.6ft 4s 4 7 mph 1011.9mb 69f 67f
8:04am 1.6ft 3s 7 9 mph 1012mb 69f 67f
7:04am 1.6ft 3s 7 9 mph 1011.9mb 69f 67f
6:04am 1.6ft 3s 11 13 mph 1011.4mb 68f 66f
5:04am 2ft 3s 13 16 mph 1011.3mb 69f 66f
4:04am 1.6ft 3s 13 16 mph 1011.6mb 69f 66f
3:04am 1.6ft 6s 13 16 mph 1012.1mb 69f 66f
2:04am 1.6ft 4s 13 16 mph 1012.5mb 69f 66f
1:04am 1.6ft 4s 11 13 mph 1013mb 69f 66f
12:04am 1.6ft 4s 11 13 mph 1013.5mb 69f 66f
Mon 08/13 11:04pm 1.6ft 4s 11 13 mph 1013.8mb 69f 66f
10:04pm 2ft 4s 11 13 mph 1014.3mb 69f 66f
9:04pm 1.6ft 4s 13 13 mph 1014.6mb 69f 66f
8:04pm 1.6ft 4s 11 13 mph 1014.6mb 69f 67f
7:04pm 1.6ft 4s 13 16 mph 1014.7mb 69f 66f